createdAt,value
2023-03-25T00:00:59.185Z,101235.84
2023-03-25T00:03:29.039Z,101237.90
2023-03-25T00:05:59.082Z,101244.84
2023-03-25T00:08:28.044Z,101250.85
2023-03-25T00:10:58.971Z,101242.55
2023-03-25T00:13:27.897Z,101208.57
2023-03-25T00:15:59.746Z,101211.91
2023-03-25T00:18:34.999Z,101188.91
2023-03-25T00:21:04.884Z,101175.22
2023-03-25T00:23:33.437Z,101156.67
2023-03-25T00:26:04.506Z,101154.62
2023-03-25T00:28:36.210Z,101157.16
2023-03-25T00:31:08.129Z,101144.41
2023-03-25T00:33:36.825Z,101157.43
2023-03-25T00:36:05.944Z,101151.38
2023-03-25T00:38:36.635Z,101156.28
2023-03-25T00:41:26.824Z,101163.25
2023-03-25T00:43:56.902Z,101150.69
2023-03-25T00:46:28.021Z,101163.97
2023-03-25T00:48:57.289Z,101173.32
2023-03-25T00:51:27.231Z,101176.66
2023-03-25T00:53:57.114Z,101187.71
2023-03-25T00:56:25.788Z,101218.12
2023-03-25T00:58:54.125Z,101220.37
2023-03-25T01:01:28.358Z,101221.29
2023-03-25T01:04:01.172Z,101215.41
2023-03-25T01:06:34.386Z,101209.81
2023-03-25T01:09:05.994Z,101201.87
2023-03-25T01:11:36.286Z,101211.32
2023-03-25T01:14:06.248Z,101191.53
2023-03-25T01:16:34.893Z,101188.33
2023-03-25T01:19:02.912Z,101185.98
2023-03-25T01:21:31.115Z,101194.97
2023-03-25T01:23:59.015Z,101194.51
2023-03-25T01:26:27.166Z,101189.24
2023-03-25T01:28:55.416Z,101192.45
2023-03-25T01:31:31.355Z,101181.85
2023-03-25T01:33:59.747Z,101157.91
2023-03-25T01:36:30.744Z,101168.87
2023-03-25T01:39:00.971Z,101167.27
2023-03-25T01:41:42.352Z,101166.13
2023-03-25T01:44:19.764Z,101164.88
2023-03-25T01:46:50.789Z,101163.41
2023-03-25T01:49:24.957Z,101162.95
2023-03-25T01:51:57.982Z,101161.81
2023-03-25T01:54:26.200Z,101150.10
2023-03-25T01:56:55.568Z,101151.38
2023-03-25T01:59:27.648Z,101156.58
2023-03-25T02:01:58.248Z,101155.43
2023-03-25T02:04:40.380Z,101162.40
2023-03-25T02:07:12.789Z,101151.48
2023-03-25T02:09:40.765Z,101161.29
2023-03-25T02:12:08.969Z,101162.56
2023-03-25T02:14:38.988Z,101165.05
2023-03-25T02:17:32.504Z,101169.46
2023-03-25T02:20:09.482Z,101160.14
2023-03-25T02:23:08.964Z,101158.90
2023-03-25T02:25:57.579Z,101154.78
2023-03-25T02:28:49.044Z,101156.38
2023-03-25T02:31:19.817Z,101151.80
2023-03-25T02:33:52.330Z,101148.14
2023-03-25T02:37:08.102Z,101147.72
2023-03-25T02:40:20.762Z,101141.57
2023-03-25T02:43:15.312Z,101139.05
2023-03-25T02:45:51.755Z,101147.91
2023-03-25T02:48:25.174Z,101158.38
2023-03-25T02:50:58.451Z,101160.77
2023-03-25T02:53:34.796Z,101155.40
2023-03-25T02:56:09.989Z,101162.23
2023-03-25T02:58:40.684Z,101154.95
2023-03-25T03:01:11.393Z,101157.33
2023-03-25T03:03:39.392Z,101160.20
2023-03-25T03:06:09.119Z,101160.20
2023-03-25T03:08:52.878Z,101170.34
2023-03-25T03:11:38.244Z,101171.91
2023-03-25T03:14:24.615Z,101164.95
2023-03-25T03:17:13.610Z,101174.30
2023-03-25T03:19:48.532Z,101170.87
2023-03-25T03:22:37.843Z,101164.23
2023-03-25T03:25:30.677Z,101175.64
2023-03-25T03:28:07.069Z,101169.79
2023-03-25T03:30:40.925Z,101176.16
2023-03-25T03:33:30.121Z,101193.27
2023-03-25T03:36:06.544Z,101210.37
2023-03-25T03:38:39.855Z,101230.09
2023-03-25T03:41:11.947Z,101257.20
2023-03-25T03:44:04.117Z,101276.00
2023-03-25T03:46:34.768Z,101264.09
2023-03-25T03:49:06.372Z,101286.69
2023-03-25T03:51:40.048Z,101299.87
2023-03-25T03:54:15.076Z,101307.29
2023-03-25T03:56:47.791Z,101316.45
2023-03-25T03:59:22.475Z,101318.70
2023-03-25T04:01:59.425Z,101331.06
2023-03-25T04:04:30.964Z,101332.66
2023-03-25T04:07:05.980Z,101326.16
2023-03-25T04:09:43.233Z,101307.42
2023-03-25T04:12:21.960Z,101310.73
2023-03-25T04:14:49.993Z,101304.22
2023-03-25T04:17:18.832Z,101290.95
2023-03-25T04:19:50.467Z,101304.67
2023-03-25T04:22:19.787Z,101293.43
2023-03-25T04:24:51.277Z,101300.69
2023-03-25T04:27:20.265Z,101296.37
2023-03-25T04:29:49.097Z,101294.37
2023-03-25T04:32:17.544Z,101297.71
2023-03-25T04:34:45.461Z,101301.41
2023-03-25T04:37:13.385Z,101268.58
2023-03-25T04:39:41.857Z,101272.20
2023-03-25T04:42:15.117Z,101305.16
2023-03-25T04:44:42.970Z,101310.92
2023-03-25T04:47:16.112Z,101310.13
2023-03-25T04:49:46.358Z,101304.12
2023-03-25T04:52:14.307Z,101307.81
2023-03-25T04:54:42.248Z,101302.48
2023-03-25T04:57:10.359Z,101302.06
2023-03-25T04:59:38.569Z,101304.55
2023-03-25T05:02:08.128Z,101309.88
2023-03-25T05:04:36.133Z,101307.06
2023-03-25T05:07:04.221Z,101322.04
2023-03-25T05:09:32.988Z,101333.06
2023-03-25T05:12:00.863Z,101329.43
2023-03-25T05:14:28.792Z,101332.70
2023-03-25T05:16:58.697Z,101334.40
2023-03-25T05:19:26.892Z,101333.48
2023-03-25T05:21:57.433Z,101329.30
2023-03-25T05:24:25.416Z,101334.14
2023-03-25T05:26:53.241Z,101318.31
2023-03-25T05:29:21.187Z,101325.60
2023-03-25T05:31:49.912Z,101324.69
2023-03-25T05:34:18.285Z,101329.95
2023-03-25T05:36:46.384Z,101330.28
2023-03-25T05:39:14.401Z,101336.76
2023-03-25T05:41:42.325Z,101327.37
2023-03-25T05:44:11.586Z,101342.70
2023-03-25T05:46:39.465Z,101332.93
2023-03-25T05:49:07.388Z,101339.44
2023-03-25T05:51:38.744Z,101334.07
2023-03-25T05:54:12.234Z,101337.64
2023-03-25T05:56:40.991Z,101344.47
2023-03-25T05:59:09.595Z,101332.21
2023-03-25T06:01:43.229Z,101349.15
2023-03-25T06:04:11.272Z,101352.38
2023-03-25T06:06:39.145Z,101356.70
2023-03-25T06:09:08.350Z,101368.87
2023-03-25T06:11:39.345Z,101369.59
2023-03-25T06:14:07.855Z,101372.79
2023-03-25T06:16:36.762Z,101367.88
2023-03-25T06:19:04.886Z,101381.33
2023-03-25T06:21:34.865Z,101375.96
2023-03-25T06:24:03.822Z,101373.58
2023-03-25T06:26:31.879Z,101363.02
2023-03-25T06:28:59.821Z,101366.91
2023-03-25T06:31:28.229Z,101359.45
2023-03-25T06:33:57.348Z,101354.09
2023-03-25T06:36:26.888Z,101352.74
2023-03-25T06:38:55.300Z,101344.11
2023-03-25T06:41:26.384Z,101344.80
2023-03-25T06:43:54.722Z,101350.62
2023-03-25T06:46:22.659Z,101350.88
2023-03-25T06:48:50.722Z,101353.86
2023-03-25T06:51:18.822Z,101344.66
2023-03-25T06:53:46.938Z,101333.38
2023-03-25T06:56:15.693Z,101338.09
2023-03-25T06:58:44.877Z,101329.66
2023-03-25T07:01:12.823Z,101327.40
2023-03-25T07:03:40.725Z,101326.36
2023-03-25T07:06:09.114Z,101325.67
2023-03-25T07:08:37.140Z,101333.74
2023-03-25T07:11:09.118Z,101333.29
2023-03-25T07:13:37.119Z,101338.98
2023-03-25T07:16:05.444Z,101345.87
2023-03-25T07:18:33.740Z,101345.98
2023-03-25T07:21:01.672Z,101347.32
2023-03-25T07:23:29.606Z,101345.81
2023-03-25T07:25:58.315Z,101344.05
2023-03-25T07:28:26.154Z,101343.66
2023-03-25T07:30:54.109Z,101354.34
2023-03-25T07:33:22.217Z,101348.49
2023-03-25T07:35:50.411Z,101344.11
2023-03-25T07:38:19.959Z,101341.46
2023-03-25T07:40:50.376Z,101335.77
2023-03-25T07:43:18.646Z,101329.30
2023-03-25T07:45:46.673Z,101331.91
2023-03-25T07:48:17.959Z,101325.48
2023-03-25T07:50:47.080Z,101331.98
2023-03-25T07:53:15.046Z,101334.83
2023-03-25T07:55:42.976Z,101338.16
2023-03-25T07:58:10.895Z,101331.36
2023-03-25T08:00:39.315Z,101322.89
2023-03-25T08:03:07.950Z,101319.13
2023-03-25T08:05:36.076Z,101322.53
2023-03-25T08:08:07.081Z,101323.71
2023-03-25T08:10:36.425Z,101324.39
2023-03-25T08:13:04.439Z,101325.73
2023-03-25T08:15:32.404Z,101324.20
2023-03-25T08:18:00.353Z,101327.66
2023-03-25T08:20:28.435Z,101322.92
2023-03-25T08:22:58.681Z,101325.31
2023-03-25T08:25:27.228Z,101316.58
2023-03-25T08:27:55.361Z,101311.97
2023-03-25T08:30:23.977Z,101309.13
2023-03-25T08:32:55.858Z,101322.76
2023-03-25T08:35:25.393Z,101311.77
2023-03-25T08:37:53.292Z,101312.27
2023-03-25T08:40:21.248Z,101309.65
2023-03-25T08:42:49.176Z,101320.77
2023-03-25T08:45:17.132Z,101330.25
2023-03-25T08:47:45.264Z,101322.73
2023-03-25T08:50:13.805Z,101345.23
2023-03-25T08:52:42.539Z,101327.24
2023-03-25T08:55:12.644Z,101351.14
2023-03-25T08:57:40.585Z,101360.59
2023-03-25T09:00:15.550Z,101359.32
2023-03-25T09:02:44.913Z,101348.79
2023-03-25T09:05:14.002Z,101362.85
2023-03-25T09:07:42.129Z,101352.84
2023-03-25T09:10:10.756Z,101351.38
2023-03-25T09:12:38.637Z,101338.16
2023-03-25T09:15:07.641Z,101355.95
2023-03-25T09:17:35.570Z,101354.12
2023-03-25T09:20:03.564Z,101363.14
2023-03-25T09:22:31.570Z,101356.96
2023-03-25T09:24:59.523Z,101349.90
2023-03-25T09:27:27.502Z,101345.42
2023-03-25T09:29:55.483Z,101353.59
2023-03-25T09:32:23.407Z,101352.55
2023-03-25T09:34:51.516Z,101341.10
2023-03-25T09:37:19.919Z,101355.33
2023-03-25T09:39:48.009Z,101358.83
2023-03-25T09:42:35.311Z,101354.19
2023-03-25T09:45:12.162Z,101352.58
2023-03-25T09:47:48.831Z,101341.43
2023-03-25T09:50:18.166Z,101337.34
2023-03-25T09:53:04.007Z,101328.77
2023-03-25T09:55:36.407Z,101327.66
2023-03-25T09:58:22.254Z,101321.45
2023-03-25T10:01:27.981Z,101330.90
2023-03-25T10:03:59.988Z,101328.13
2023-03-25T10:06:28.152Z,101336.88
2023-03-25T10:09:29.059Z,101329.92
2023-03-25T10:12:32.491Z,101330.64
2023-03-25T10:15:23.130Z,101322.63
2023-03-25T10:18:12.603Z,101330.38
2023-03-25T10:20:40.613Z,101321.55
2023-03-25T10:23:22.681Z,101310.86
2023-03-25T10:25:57.364Z,101317.56
2023-03-25T10:28:32.594Z,101310.79
2023-03-25T10:31:01.526Z,101321.19
2023-03-25T10:33:38.987Z,101316.09
2023-03-25T10:36:13.090Z,101309.05
2023-03-25T10:38:43.311Z,101325.93
2023-03-25T10:41:32.187Z,101324.20
2023-03-25T10:44:00.146Z,101329.59
2023-03-25T10:46:48.272Z,101340.88
2023-03-25T10:49:20.075Z,101341.23
2023-03-25T10:51:50.849Z,101357.12
2023-03-25T10:54:20.016Z,101346.40
2023-03-25T10:56:53.334Z,101364.29
2023-03-25T10:59:46.649Z,101361.87
2023-03-25T11:02:20.781Z,101364.22
2023-03-25T11:04:52.465Z,101362.39
2023-03-25T11:07:22.371Z,101357.39
2023-03-25T11:09:53.104Z,101359.97
2023-03-25T11:12:33.317Z,101365.95
2023-03-25T11:15:19.930Z,101367.43
2023-03-25T11:17:49.556Z,101363.44
2023-03-25T11:20:29.637Z,101360.23
2023-03-25T11:23:05.444Z,101368.96
2023-03-25T11:25:41.190Z,101365.30
2023-03-25T11:28:40.898Z,101366.91
2023-03-25T11:31:09.358Z,101369.65
2023-03-25T11:33:40.752Z,101373.64
2023-03-25T11:36:21.722Z,101361.18
2023-03-25T11:38:58.071Z,101350.72
2023-03-25T11:41:30.868Z,101361.15
2023-03-25T11:43:59.062Z,101369.68
2023-03-25T11:46:27.470Z,101369.72
2023-03-25T11:48:55.608Z,101362.82
2023-03-25T11:51:27.333Z,101374.23
2023-03-25T11:54:01.516Z,101372.17
2023-03-25T11:56:41.466Z,101377.86
2023-03-25T11:59:19.572Z,101362.49
2023-03-25T12:01:49.671Z,101353.56
2023-03-25T12:04:23.900Z,101351.47
2023-03-25T12:07:07.510Z,101350.09
2023-03-25T12:09:36.101Z,101330.41
2023-03-25T12:12:12.847Z,101332.41
2023-03-25T12:15:02.307Z,101334.89
2023-03-25T12:17:36.140Z,101332.77
2023-03-25T12:20:15.308Z,101333.02
2023-03-25T12:22:46.024Z,101330.25
2023-03-25T12:25:19.784Z,101313.99
2023-03-25T12:28:01.087Z,101313.70
2023-03-25T12:30:56.546Z,101304.71
2023-03-25T12:33:33.812Z,101308.27
2023-03-25T12:36:31.063Z,101299.70
2023-03-25T12:39:18.579Z,101296.30
2023-03-25T12:41:57.802Z,101299.02
2023-03-25T12:44:43.939Z,101291.56
2023-03-25T12:47:24.765Z,101289.54
2023-03-25T12:50:06.356Z,101272.40
2023-03-25T12:52:52.551Z,101280.97
2023-03-25T12:55:45.386Z,101283.06
2023-03-25T12:58:25.298Z,101282.24
2023-03-25T13:01:18.912Z,101278.58
2023-03-25T13:04:12.376Z,101282.57
2023-03-25T13:07:12.914Z,101286.52
2023-03-25T13:10:02.019Z,101277.73
2023-03-25T13:12:37.564Z,101284.56
2023-03-25T13:15:21.805Z,101272.76
2023-03-25T13:18:16.255Z,101250.95
2023-03-25T13:20:50.965Z,101267.01
2023-03-25T13:23:23.290Z,101257.45
2023-03-25T13:26:03.706Z,101256.02
2023-03-25T13:28:42.280Z,101259.32
2023-03-25T13:31:28.606Z,101253.08
2023-03-25T13:34:22.035Z,101245.09
2023-03-25T13:37:19.975Z,101239.51
2023-03-25T13:40:14.206Z,101244.24
2023-03-25T13:43:09.146Z,101239.93
2023-03-25T13:45:53.599Z,101247.26
2023-03-25T13:48:29.998Z,101248.40
2023-03-25T13:51:04.164Z,101249.22
2023-03-25T13:53:44.296Z,101244.57
2023-03-25T13:56:31.063Z,101245.65
2023-03-25T13:59:12.998Z,101251.21
2023-03-25T14:01:54.792Z,101240.68
2023-03-25T14:04:48.657Z,101245.78
2023-03-25T14:07:31.440Z,101235.91
2023-03-25T14:10:51.385Z,101236.73
2023-03-25T14:13:35.186Z,101229.40
2023-03-25T14:16:10.444Z,101219.69
2023-03-25T14:18:54.299Z,101228.42
2023-03-25T14:21:22.546Z,101233.81
2023-03-25T14:24:02.093Z,101225.80
2023-03-25T14:26:30.469Z,101234.99
2023-03-25T14:28:59.102Z,101232.44
2023-03-25T14:31:32.398Z,101225.90
2023-03-25T14:34:05.865Z,101231.46
2023-03-25T14:36:42.482Z,101238.42
2023-03-25T14:39:33.437Z,101234.86
2023-03-25T14:42:12.825Z,101248.73
2023-03-25T14:44:50.869Z,101239.63
2023-03-25T14:47:28.237Z,101236.27
2023-03-25T14:50:17.636Z,101228.48
2023-03-25T14:52:49.513Z,101229.76
2023-03-25T14:55:23.622Z,101218.19
2023-03-25T14:57:53.666Z,101215.50
2023-03-25T15:00:29.552Z,101218.05
2023-03-25T15:03:13.939Z,101221.88
2023-03-25T15:05:43.765Z,101222.86
2023-03-25T15:08:15.826Z,101232.64
2023-03-25T15:10:49.432Z,101231.23
2023-03-25T15:13:17.523Z,101237.45
2023-03-25T15:15:48.720Z,101233.81
2023-03-25T15:18:42.046Z,101255.04
2023-03-25T15:21:09.936Z,101275.64
2023-03-25T15:23:49.292Z,101307.91
2023-03-25T15:26:42.978Z,101299.87
2023-03-25T15:29:39.262Z,101288.13
2023-03-25T15:32:16.464Z,101287.64
2023-03-25T15:35:17.010Z,101276.85
2023-03-25T15:37:50.769Z,101270.47
2023-03-25T15:40:36.281Z,101268.41
2023-03-25T15:43:42.511Z,101261.74
2023-03-25T15:46:49.154Z,101256.84
2023-03-25T15:49:35.477Z,101257.91
2023-03-25T15:52:26.081Z,101261.41
2023-03-25T15:55:02.108Z,101261.58
2023-03-25T15:57:50.926Z,101259.98
2023-03-25T16:00:26.099Z,101255.07
2023-03-25T16:02:59.932Z,101269.69
2023-03-25T16:05:28.818Z,101261.74
2023-03-25T16:08:01.222Z,101261.91
2023-03-25T16:10:34.440Z,101273.64
2023-03-25T16:13:05.440Z,101282.08
2023-03-25T16:15:35.856Z,101283.35
2023-03-25T16:18:07.713Z,101301.77
2023-03-25T16:20:37.865Z,101314.03
2023-03-25T16:23:08.982Z,101307.03
2023-03-25T16:25:41.435Z,101324.63
2023-03-25T16:28:16.952Z,101333.95
2023-03-25T16:30:50.732Z,101305.30
2023-03-25T16:33:23.074Z,101309.71
2023-03-25T16:35:59.509Z,101308.73
2023-03-25T16:38:27.825Z,101318.57
2023-03-25T16:41:17.869Z,101319.65
2023-03-25T16:43:46.223Z,101323.91
2023-03-25T16:46:17.138Z,101309.98
2023-03-25T16:48:53.291Z,101308.57
2023-03-25T16:51:36.692Z,101302.52
2023-03-25T16:54:11.544Z,101306.15
2023-03-25T16:56:40.441Z,101298.07
2023-03-25T16:59:17.893Z,101310.59
2023-03-25T17:01:53.705Z,101321.38
2023-03-25T17:04:27.372Z,101319.78
2023-03-25T17:06:59.100Z,101323.45
2023-03-25T17:09:35.338Z,101323.91
2023-03-25T17:12:08.302Z,101339.80
2023-03-25T17:14:40.569Z,101330.73
2023-03-25T17:17:43.172Z,101325.51
2023-03-25T17:20:20.290Z,101322.66
2023-03-25T17:23:01.874Z,101328.68
2023-03-25T17:25:51.537Z,101329.63
2023-03-25T17:28:42.684Z,101329.30
2023-03-25T17:31:20.337Z,101319.95
2023-03-25T17:33:51.027Z,101323.25
2023-03-25T17:36:20.715Z,101314.35
2023-03-25T17:38:52.940Z,101316.88
2023-03-25T17:41:22.384Z,101317.82
2023-03-25T17:43:54.488Z,101314.29
2023-03-25T17:46:25.676Z,101316.25
2023-03-25T17:48:56.438Z,101311.31
2023-03-25T17:51:27.106Z,101305.59
2023-03-25T17:53:55.755Z,101300.69
2023-03-25T17:56:26.842Z,101298.63
2023-03-25T17:59:19.464Z,101288.95
2023-03-25T18:01:48.896Z,101292.74
2023-03-25T18:04:18.175Z,101299.38
2023-03-25T18:06:46.236Z,101293.69
2023-03-25T18:09:23.265Z,101294.15
2023-03-25T18:11:54.211Z,101297.91
2023-03-25T18:14:23.367Z,101302.81
2023-03-25T18:16:52.159Z,101310.73
2023-03-25T18:19:26.109Z,101306.73
2023-03-25T18:21:55.548Z,101312.91
2023-03-25T18:24:23.620Z,101320.80
2023-03-25T18:26:51.585Z,101324.27
2023-03-25T18:29:31.365Z,101325.67
2023-03-25T18:31:59.712Z,101326.26
2023-03-25T18:34:28.989Z,101327.20
2023-03-25T18:36:59.225Z,101322.43
2023-03-25T18:39:28.972Z,101325.41
2023-03-25T18:41:56.919Z,101329.53
2023-03-25T18:44:25.143Z,101334.53
2023-03-25T18:46:53.172Z,101332.18
2023-03-25T18:49:21.334Z,101338.32
2023-03-25T18:51:52.700Z,101331.49
2023-03-25T18:54:20.675Z,101322.92
2023-03-25T18:56:48.573Z,101326.26
2023-03-25T18:59:22.896Z,101330.38
2023-03-25T19:01:50.876Z,101321.81
2023-03-25T19:04:19.494Z,101323.22
2023-03-25T19:06:47.927Z,101319.23
2023-03-25T19:09:20.021Z,101314.09
2023-03-25T19:11:48.674Z,101315.47
2023-03-25T19:14:16.895Z,101324.16
2023-03-25T19:16:57.306Z,101316.88
2023-03-25T19:19:31.431Z,101320.96
2023-03-25T19:21:59.525Z,101320.30
2023-03-25T19:24:27.563Z,101317.59
2023-03-25T19:26:55.527Z,101310.73
2023-03-25T19:29:23.444Z,101318.97
2023-03-25T19:31:51.301Z,101318.64
2023-03-25T19:34:19.349Z,101322.73
2023-03-25T19:36:48.191Z,101322.07
2023-03-25T19:39:17.283Z,101328.22
2023-03-25T19:41:46.098Z,101316.94
2023-03-25T19:44:15.693Z,101315.01
2023-03-25T19:46:43.685Z,101310.27
2023-03-25T19:49:12.104Z,101316.52
2023-03-25T19:51:41.323Z,101312.20
2023-03-25T19:54:14.793Z,101325.31
2023-03-25T19:56:43.608Z,101324.63
2023-03-25T19:59:11.979Z,101312.10
2023-03-25T20:01:40.005Z,101316.32
2023-03-25T20:04:08.145Z,101320.41
2023-03-25T20:06:36.045Z,101326.13
2023-03-25T20:09:05.372Z,101319.49
2023-03-25T20:11:34.071Z,101321.45
2023-03-25T20:14:02.206Z,101322.92
2023-03-25T20:16:32.135Z,101310.73
2023-03-25T20:19:00.060Z,101313.80
2023-03-25T20:21:27.937Z,101312.39
2023-03-25T20:23:55.888Z,101306.93
2023-03-25T20:26:23.887Z,101312.06
2023-03-25T20:28:53.077Z,101301.30
2023-03-25T20:31:23.566Z,101297.55
2023-03-25T20:33:52.621Z,101297.74
2023-03-25T20:36:21.513Z,101293.52
2023-03-25T20:38:57.118Z,101293.72
2023-03-25T20:41:26.261Z,101288.72
2023-03-25T20:43:54.156Z,101282.51
2023-03-25T20:46:25.090Z,101284.92
2023-03-25T20:48:53.270Z,101284.92
2023-03-25T20:51:21.235Z,101282.41
2023-03-25T20:53:49.924Z,101279.53
2023-03-25T20:56:18.201Z,101279.53
2023-03-25T20:58:46.501Z,101276.69
2023-03-25T21:01:16.631Z,101278.88
2023-03-25T21:03:44.595Z,101283.78
2023-03-25T21:06:22.857Z,101293.59
2023-03-25T21:08:52.655Z,101291.66
2023-03-25T21:11:20.535Z,101290.87
2023-03-25T21:13:48.634Z,101295.45
2023-03-25T21:16:16.661Z,101287.80
2023-03-25T21:18:44.694Z,101297.52
2023-03-25T21:21:12.654Z,101291.01
2023-03-25T21:23:44.162Z,101287.02
2023-03-25T21:26:13.087Z,101289.41
2023-03-25T21:28:41.094Z,101289.41
2023-03-25T21:31:11.504Z,101285.77
2023-03-25T21:33:39.460Z,101287.80
2023-03-25T21:36:10.113Z,101278.16
2023-03-25T21:38:37.992Z,101277.99
2023-03-25T21:41:07.991Z,101289.77
2023-03-25T21:43:38.870Z,101285.16
2023-03-25T21:46:08.275Z,101277.77
2023-03-25T21:48:39.494Z,101284.27
2023-03-25T21:51:15.852Z,101280.94
2023-03-25T21:53:46.638Z,101268.73
2023-03-25T21:56:18.629Z,101262.10
2023-03-25T21:58:48.327Z,101273.52
2023-03-25T22:01:20.871Z,101270.21
2023-03-25T22:03:48.785Z,101278.74
2023-03-25T22:06:19.940Z,101276.36
2023-03-25T22:08:48.471Z,101274.79
2023-03-25T22:11:21.973Z,101278.55
2023-03-25T22:13:51.702Z,101275.84
2023-03-25T22:16:22.024Z,101272.66
2023-03-25T22:18:50.615Z,101268.67
2023-03-25T22:21:24.021Z,101273.09
2023-03-25T22:23:55.852Z,101267.07
2023-03-25T22:26:25.193Z,101267.98
2023-03-25T22:29:04.368Z,101272.89
2023-03-25T22:31:34.875Z,101273.22
2023-03-25T22:34:05.112Z,101272.89
2023-03-25T22:36:34.798Z,101271.75
2023-03-25T22:39:04.149Z,101275.87
2023-03-25T22:41:32.498Z,101276.69
2023-03-25T22:44:00.666Z,101273.35
2023-03-25T22:46:28.747Z,101277.01
2023-03-25T22:48:56.759Z,101277.80
2023-03-25T22:51:24.632Z,101280.80
2023-03-25T22:53:52.646Z,101282.83
2023-03-25T22:56:21.468Z,101288.20
2023-03-25T22:58:49.406Z,101283.75
2023-03-25T23:01:25.119Z,101277.70
2023-03-25T23:03:55.120Z,101272.92
2023-03-25T23:06:23.527Z,101276.12
2023-03-25T23:08:52.064Z,101266.29
2023-03-25T23:11:26.744Z,101273.94
2023-03-25T23:13:57.669Z,101272.23
2023-03-25T23:16:28.020Z,101279.04
2023-03-25T23:18:55.929Z,101270.51
2023-03-25T23:21:27.015Z,101268.34
2023-03-25T23:23:58.240Z,101269.46
2023-03-25T23:26:35.609Z,101271.06
2023-03-25T23:29:06.054Z,101268.87
2023-03-25T23:31:35.971Z,101263.60
2023-03-25T23:34:07.174Z,101256.21
2023-03-25T23:36:39.907Z,101270.66
2023-03-25T23:39:11.526Z,101256.87
2023-03-25T23:41:39.696Z,101251.51
2023-03-25T23:44:08.054Z,101252.29
2023-03-25T23:46:36.210Z,101248.17
2023-03-25T23:49:04.220Z,101251.02
2023-03-25T23:51:38.422Z,101236.89
2023-03-25T23:54:08.683Z,101237.37
2023-03-25T23:56:37.445Z,101233.26
2023-03-25T23:59:06.776Z,101236.56
